createdAt,value
2023-07-03T00:00:58.815Z,16.89
2023-07-03T00:03:30.016Z,16.88
2023-07-03T00:06:01.955Z,16.91
2023-07-03T00:08:32.707Z,16.95
2023-07-03T00:11:05.766Z,17.01
2023-07-03T00:13:37.006Z,17.08
2023-07-03T00:16:08.818Z,17.13
2023-07-03T00:18:39.843Z,17.15
2023-07-03T00:21:11.953Z,17.15
2023-07-03T00:23:43.036Z,17.17
2023-07-03T00:26:14.082Z,17.21
2023-07-03T00:28:44.968Z,17.25
2023-07-03T00:31:15.833Z,17.25
2023-07-03T00:33:46.959Z,17.24
2023-07-03T00:36:18.630Z,17.20
2023-07-03T00:38:50.088Z,17.18
2023-07-03T00:41:21.563Z,17.17
2023-07-03T00:43:52.759Z,17.16
2023-07-03T00:46:23.665Z,17.15
2023-07-03T00:48:55.104Z,17.15
2023-07-03T00:51:26.451Z,17.18
2023-07-03T00:53:57.513Z,17.19
2023-07-03T00:56:28.493Z,17.17
2023-07-03T00:58:59.793Z,17.14
2023-07-03T01:01:38.835Z,17.09
2023-07-03T01:04:13.800Z,17.04
2023-07-03T01:06:48.967Z,16.96
2023-07-03T01:09:22.718Z,16.92
2023-07-03T01:11:54.524Z,16.91
2023-07-03T01:14:27.615Z,16.92
2023-07-03T01:17:00.480Z,16.91
2023-07-03T01:19:35.469Z,16.90
2023-07-03T01:22:11.418Z,16.89
2023-07-03T01:24:48.774Z,16.90
2023-07-03T01:27:24.978Z,16.93
2023-07-03T01:29:57.651Z,16.93
2023-07-03T01:32:33.500Z,16.92
2023-07-03T01:35:06.272Z,16.91
2023-07-03T01:37:41.454Z,16.91
2023-07-03T01:40:15.798Z,16.91
2023-07-03T01:42:48.871Z,16.93
2023-07-03T01:45:20.479Z,16.92
2023-07-03T01:47:51.790Z,16.93
2023-07-03T01:50:25.743Z,16.94
2023-07-03T01:53:00.996Z,16.95
2023-07-03T01:55:41.333Z,16.95
2023-07-03T01:58:20.492Z,16.95
2023-07-03T02:00:55.796Z,16.95
2023-07-03T02:03:32.291Z,16.93
2023-07-03T02:06:05.372Z,16.91
2023-07-03T02:08:37.632Z,16.89
2023-07-03T02:11:16.716Z,16.89
2023-07-03T02:13:47.566Z,16.89
2023-07-03T02:16:18.706Z,16.89
2023-07-03T02:18:50.597Z,16.86
2023-07-03T02:21:21.940Z,16.85
2023-07-03T02:23:53.164Z,16.81
2023-07-03T02:26:24.647Z,16.77
2023-07-03T02:28:55.676Z,16.72
2023-07-03T02:31:26.977Z,16.69
2023-07-03T02:33:58.278Z,16.68
2023-07-03T02:36:30.910Z,16.68
2023-07-03T02:39:02.759Z,16.67
2023-07-03T02:41:33.645Z,16.67
2023-07-03T02:44:04.909Z,16.70
2023-07-03T02:46:36.261Z,16.73
2023-07-03T02:49:07.164Z,16.75
2023-07-03T02:51:37.924Z,16.78
2023-07-03T02:54:11.937Z,16.79
2023-07-03T02:56:43.273Z,16.82
2023-07-03T02:59:15.772Z,16.83
2023-07-03T03:01:46.660Z,16.85
2023-07-03T03:04:18.419Z,16.87
2023-07-03T03:06:50.259Z,16.85
2023-07-03T03:09:21.212Z,16.81
2023-07-03T03:11:52.362Z,16.80
2023-07-03T03:14:23.819Z,16.77
2023-07-03T03:16:55.052Z,16.73
2023-07-03T03:19:26.242Z,16.69
2023-07-03T03:21:57.038Z,16.67
2023-07-03T03:24:28.759Z,16.66
2023-07-03T03:27:06.467Z,16.66
2023-07-03T03:29:36.035Z,16.65
2023-07-03T03:32:09.289Z,16.65
2023-07-03T03:34:39.975Z,16.66
2023-07-03T03:37:10.731Z,16.67
2023-07-03T03:39:41.474Z,16.68
2023-07-03T03:42:12.395Z,16.65
2023-07-03T03:44:43.323Z,16.63
2023-07-03T03:47:14.420Z,16.62
2023-07-03T03:49:45.373Z,16.61
2023-07-03T03:52:16.538Z,16.61
2023-07-03T03:54:48.611Z,16.61
2023-07-03T03:57:19.697Z,16.63
2023-07-03T03:59:50.919Z,16.63
2023-07-03T04:02:22.400Z,16.71
2023-07-03T04:04:53.682Z,16.74
2023-07-03T04:07:24.672Z,16.81
2023-07-03T04:09:55.407Z,16.89
2023-07-03T04:12:26.923Z,16.93
2023-07-03T04:14:58.302Z,16.96
2023-07-03T04:17:29.693Z,16.96
2023-07-03T04:20:00.948Z,16.99
2023-07-03T04:22:31.995Z,17.03
2023-07-03T04:25:03.386Z,17.06
2023-07-03T04:27:34.685Z,17.11
2023-07-03T04:30:07.470Z,17.16
2023-07-03T04:32:39.454Z,17.20
2023-07-03T04:35:11.689Z,17.26
2023-07-03T04:37:43.462Z,17.31
2023-07-03T04:40:15.778Z,17.36
2023-07-03T04:42:46.811Z,17.41
2023-07-03T04:45:17.835Z,17.47
2023-07-03T04:47:48.499Z,17.55
2023-07-03T04:50:23.735Z,17.58
2023-07-03T04:52:57.439Z,17.67
2023-07-03T04:55:30.349Z,17.78
2023-07-03T04:58:01.673Z,17.90
2023-07-03T05:00:33.332Z,18.00
2023-07-03T05:03:05.126Z,18.05
2023-07-03T05:05:36.515Z,18.10
2023-07-03T05:08:07.885Z,18.15
2023-07-03T05:10:38.932Z,18.18
2023-07-03T05:13:09.648Z,18.20
2023-07-03T05:15:40.780Z,18.25
2023-07-03T05:18:11.995Z,18.27
2023-07-03T05:20:45.216Z,18.28
2023-07-03T05:23:16.662Z,18.37
2023-07-03T05:25:49.839Z,18.49
2023-07-03T05:28:21.461Z,18.63
2023-07-03T05:30:58.027Z,18.72
2023-07-03T05:33:30.162Z,18.87
2023-07-03T05:36:03.192Z,19.02
2023-07-03T05:38:34.651Z,19.14
2023-07-03T05:41:06.046Z,19.34
2023-07-03T05:43:36.689Z,19.52
2023-07-03T05:46:07.400Z,19.71
2023-07-03T05:48:38.773Z,19.84
2023-07-03T05:51:09.427Z,19.94
2023-07-03T05:53:40.168Z,20.06
2023-07-03T05:56:11.371Z,20.20
2023-07-03T05:58:42.138Z,20.27
2023-07-03T06:01:13.599Z,20.34
2023-07-03T06:03:45.511Z,20.35
2023-07-03T06:06:18.078Z,20.36
2023-07-03T06:08:49.092Z,20.38
2023-07-03T06:11:19.960Z,20.40
2023-07-03T06:13:54.618Z,20.50
2023-07-03T06:16:28.597Z,20.58
2023-07-03T06:18:59.718Z,20.67
2023-07-03T06:21:30.831Z,20.76
2023-07-03T06:24:04.869Z,20.81
2023-07-03T06:26:35.694Z,20.83
2023-07-03T06:29:07.391Z,20.81
2023-07-03T06:31:38.774Z,20.75
2023-07-03T06:34:10.006Z,20.72
2023-07-03T06:36:40.821Z,20.66
2023-07-03T06:39:12.681Z,20.66
2023-07-03T06:41:43.565Z,20.85
2023-07-03T06:44:17.733Z,21.11
2023-07-03T06:46:50.433Z,21.17
2023-07-03T06:49:23.759Z,21.15
2023-07-03T06:51:54.949Z,21.20
2023-07-03T06:54:25.659Z,21.31
2023-07-03T06:56:56.609Z,21.38
2023-07-03T06:59:27.420Z,21.41
2023-07-03T07:01:59.146Z,21.44
2023-07-03T07:04:31.245Z,21.58
2023-07-03T07:07:02.570Z,21.72
2023-07-03T07:09:33.572Z,21.74
2023-07-03T07:12:04.720Z,21.68
2023-07-03T07:14:37.678Z,21.57
2023-07-03T07:17:08.912Z,21.49
2023-07-03T07:19:40.051Z,21.42
2023-07-03T07:22:10.766Z,21.35
2023-07-03T07:24:41.984Z,21.29
2023-07-03T07:27:13.698Z,21.24
2023-07-03T07:29:44.463Z,21.22
2023-07-03T07:32:15.950Z,21.23
2023-07-03T07:34:47.307Z,21.25
2023-07-03T07:37:18.899Z,21.24
2023-07-03T07:39:49.953Z,21.22
2023-07-03T07:42:24.975Z,21.26
2023-07-03T07:44:56.805Z,21.42
2023-07-03T07:47:27.877Z,21.63
2023-07-03T07:49:59.380Z,21.77
2023-07-03T07:52:30.752Z,21.83
2023-07-03T07:55:01.954Z,21.79
2023-07-03T07:57:33.028Z,21.76
2023-07-03T08:00:05.243Z,21.73
2023-07-03T08:02:36.129Z,21.67
2023-07-03T08:05:08.437Z,21.66
2023-07-03T08:07:40.307Z,21.64
2023-07-03T08:10:12.330Z,21.78
2023-07-03T08:12:43.550Z,21.91
2023-07-03T08:15:17.379Z,21.90
2023-07-03T08:17:49.042Z,21.85
2023-07-03T08:20:20.334Z,21.80
2023-07-03T08:22:51.240Z,21.79
2023-07-03T08:25:22.629Z,21.79
2023-07-03T08:27:53.524Z,21.73
2023-07-03T08:30:25.100Z,21.61
2023-07-03T08:32:56.278Z,21.57
2023-07-03T08:38:02.790Z,21.84
2023-07-03T08:40:34.129Z,22.09
2023-07-03T08:43:07.864Z,22.28
2023-07-03T08:45:41.513Z,22.51
2023-07-03T08:48:17.649Z,22.78
2023-07-03T08:50:53.077Z,22.96
2023-07-03T08:53:28.489Z,22.97
2023-07-03T08:56:04.294Z,22.84
2023-07-03T08:58:35.068Z,22.52
2023-07-03T09:01:19.755Z,22.22
2023-07-03T09:04:01.047Z,21.80
2023-07-03T09:06:38.078Z,21.33
2023-07-03T09:09:17.188Z,21.04
2023-07-03T09:11:50.999Z,20.95
2023-07-03T09:14:29.550Z,21.01
2023-07-03T09:17:01.258Z,21.09
2023-07-03T09:19:32.945Z,21.25
2023-07-03T09:22:06.400Z,21.40
2023-07-03T09:24:44.021Z,21.52
2023-07-03T09:27:19.245Z,21.64
2023-07-03T09:29:50.910Z,21.72
2023-07-03T09:32:28.261Z,21.83
2023-07-03T09:35:09.069Z,21.97
2023-07-03T09:37:42.838Z,22.03
2023-07-03T09:40:20.215Z,22.14
2023-07-03T09:42:52.123Z,22.40
2023-07-03T09:45:25.535Z,22.63
2023-07-03T09:47:59.845Z,22.73
2023-07-03T09:50:34.045Z,22.78
2023-07-03T09:53:09.696Z,22.77
2023-07-03T09:55:41.525Z,22.99
2023-07-03T09:58:17.109Z,23.37
2023-07-03T10:00:51.092Z,23.63
2023-07-03T10:03:30.762Z,23.67
2023-07-03T10:08:50.267Z,23.61
2023-07-03T10:11:28.508Z,23.50
2023-07-03T10:14:00.170Z,23.45
2023-07-03T10:16:32.905Z,23.57
2023-07-03T10:19:04.902Z,23.82
2023-07-03T10:21:35.587Z,24.04
2023-07-03T10:24:07.432Z,24.22
2023-07-03T10:26:48.380Z,24.18
2023-07-03T10:29:26.220Z,24.03
2023-07-03T10:32:01.677Z,24.05
2023-07-03T10:34:39.371Z,24.11
2023-07-03T10:37:13.170Z,24.13
2023-07-03T10:39:50.200Z,24.03
2023-07-03T10:42:25.181Z,23.92
2023-07-03T10:45:02.301Z,23.76
2023-07-03T10:47:40.569Z,23.44
2023-07-03T10:50:12.589Z,23.02
2023-07-03T10:52:53.873Z,22.55
2023-07-03T10:55:31.097Z,22.03
2023-07-03T10:58:14.351Z,21.54
2023-07-03T11:00:52.433Z,20.96
2023-07-03T11:03:30.964Z,20.52
2023-07-03T11:06:05.622Z,20.27
2023-07-03T11:08:44.953Z,20.18
2023-07-03T11:11:30.549Z,20.12
2023-07-03T11:14:09.712Z,20.07
2023-07-03T11:16:53.000Z,20.09
2023-07-03T11:25:02.666Z,20.53
2023-07-03T11:30:16.186Z,21.41
2023-07-03T11:32:48.555Z,21.81
2023-07-03T11:40:40.471Z,23.13
2023-07-03T11:43:34.930Z,23.46
2023-07-03T11:46:10.446Z,23.75
2023-07-03T11:48:50.720Z,23.96
2023-07-03T11:51:35.870Z,24.22
2023-07-03T11:54:21.094Z,24.31
2023-07-03T11:57:01.600Z,24.40
2023-07-03T11:59:48.887Z,24.32
2023-07-03T12:02:56.639Z,24.31
2023-07-03T12:06:01.697Z,24.39
2023-07-03T12:08:48.691Z,24.39
2023-07-03T12:11:18.030Z,24.38
2023-07-03T12:13:54.506Z,24.23
2023-07-03T12:16:31.799Z,24.26
2023-07-03T12:19:06.234Z,24.46
2023-07-03T12:21:44.877Z,24.57
2023-07-03T12:24:29.052Z,24.57
2023-07-03T12:27:05.552Z,24.38
2023-07-03T12:29:38.979Z,24.07
2023-07-03T12:32:11.167Z,23.76
2023-07-03T12:34:43.769Z,23.48
2023-07-03T12:37:19.008Z,23.28
2023-07-03T12:39:51.508Z,23.06
2023-07-03T12:42:29.395Z,22.82
2023-07-03T12:45:14.902Z,22.49
2023-07-03T12:47:46.988Z,22.25
2023-07-03T12:50:20.006Z,22.13
2023-07-03T12:52:59.709Z,22.15
2023-07-03T12:55:33.667Z,22.24
2023-07-03T12:58:07.427Z,22.42
2023-07-03T13:00:38.876Z,22.69
2023-07-03T13:03:15.779Z,22.94
2023-07-03T13:05:46.721Z,23.14
2023-07-03T13:08:19.076Z,23.25
2023-07-03T13:11:01.651Z,23.33
2023-07-03T13:13:32.774Z,23.54
2023-07-03T13:16:16.882Z,23.72
2023-07-03T13:19:01.888Z,23.78
2023-07-03T13:21:35.304Z,23.81
2023-07-03T13:24:12.446Z,23.87
2023-07-03T13:26:48.283Z,23.99
2023-07-03T13:29:25.847Z,24.10
2023-07-03T13:32:15.441Z,24.04
2023-07-03T13:35:07.204Z,23.94
2023-07-03T13:37:39.798Z,24.07
2023-07-03T13:40:12.447Z,24.18
2023-07-03T13:42:43.224Z,24.38
2023-07-03T13:45:15.898Z,24.50
2023-07-03T13:47:47.534Z,24.51
2023-07-03T13:50:18.371Z,24.46
2023-07-03T13:52:49.500Z,24.39
2023-07-03T13:55:20.827Z,24.35
2023-07-03T13:57:52.675Z,24.31
2023-07-03T14:00:23.908Z,24.22
2023-07-03T14:02:54.876Z,24.08
2023-07-03T14:05:26.231Z,23.97
2023-07-03T14:07:58.064Z,23.88
2023-07-03T14:10:28.778Z,23.72
2023-07-03T14:12:59.962Z,23.46
2023-07-03T14:15:31.886Z,23.15
2023-07-03T14:18:03.140Z,22.89
2023-07-03T14:20:33.909Z,22.68
2023-07-03T14:23:06.522Z,22.53
2023-07-03T14:25:37.907Z,22.42
2023-07-03T14:28:08.976Z,22.29
2023-07-03T14:30:39.799Z,22.22
2023-07-03T14:33:11.100Z,22.26
2023-07-03T14:35:41.926Z,22.39
2023-07-03T14:38:12.671Z,22.62
2023-07-03T14:40:44.258Z,22.89
2023-07-03T14:43:15.202Z,23.22
2023-07-03T14:45:45.953Z,23.45
2023-07-03T14:48:17.102Z,23.63
2023-07-03T14:50:48.732Z,23.83
2023-07-03T14:53:19.974Z,23.94
2023-07-03T14:55:57.286Z,23.94
2023-07-03T14:58:26.549Z,23.96
2023-07-03T15:01:01.034Z,23.91
2023-07-03T15:03:32.722Z,23.91
2023-07-03T15:06:09.540Z,23.98
2023-07-03T15:08:40.489Z,23.92
2023-07-03T15:11:18.613Z,23.87
2023-07-03T15:13:49.438Z,23.73
2023-07-03T15:16:20.771Z,23.46
2023-07-03T15:18:51.826Z,23.14
2023-07-03T15:21:23.089Z,22.85
2023-07-03T15:23:55.546Z,22.61
2023-07-03T15:26:27.167Z,22.47
2023-07-03T15:28:57.947Z,22.30
2023-07-03T15:31:29.073Z,22.15
2023-07-03T15:34:00.249Z,21.97
2023-07-03T15:36:31.526Z,21.77
2023-07-03T15:39:02.754Z,21.59
2023-07-03T15:41:34.699Z,21.40
2023-07-03T15:44:05.567Z,21.24
2023-07-03T15:46:36.396Z,21.14
2023-07-03T15:49:08.624Z,21.11
2023-07-03T15:51:39.538Z,21.13
2023-07-03T15:54:10.830Z,21.16
2023-07-03T15:56:41.703Z,21.19
2023-07-03T15:59:13.596Z,21.20
2023-07-03T16:01:44.487Z,21.22
2023-07-03T16:04:15.209Z,21.25
2023-07-03T16:06:46.022Z,21.30
2023-07-03T16:09:17.235Z,21.52
2023-07-03T16:11:48.570Z,21.83
2023-07-03T16:14:20.306Z,22.08
2023-07-03T16:16:50.986Z,22.28
2023-07-03T16:19:21.782Z,22.37
2023-07-03T16:21:52.732Z,22.40
2023-07-03T16:24:23.901Z,22.39
2023-07-03T16:26:54.752Z,22.39
2023-07-03T16:29:25.999Z,22.44
2023-07-03T16:31:57.103Z,22.46
2023-07-03T16:34:28.490Z,22.46
2023-07-03T16:36:59.556Z,22.47
2023-07-03T16:39:30.528Z,22.50
2023-07-03T16:42:01.767Z,22.50
2023-07-03T16:44:32.861Z,22.48
2023-07-03T16:47:03.753Z,22.43
2023-07-03T16:49:34.875Z,22.40
2023-07-03T16:52:05.963Z,22.37
2023-07-03T16:54:36.979Z,22.33
2023-07-03T16:57:08.549Z,22.25
2023-07-03T16:59:39.381Z,22.17
2023-07-03T17:02:10.378Z,22.10
2023-07-03T17:04:41.282Z,22.02
2023-07-03T17:07:12.777Z,21.88
2023-07-03T17:09:43.564Z,21.78
2023-07-03T17:12:14.390Z,21.72
2023-07-03T17:14:45.328Z,21.68
2023-07-03T17:17:17.682Z,21.65
2023-07-03T17:19:48.647Z,21.58
2023-07-03T17:22:21.003Z,21.50
2023-07-03T17:24:51.876Z,21.39
2023-07-03T17:27:22.674Z,21.36
2023-07-03T17:29:53.553Z,21.35
2023-07-03T17:32:24.443Z,21.29
2023-07-03T17:34:56.037Z,21.24
2023-07-03T17:37:27.005Z,21.21
2023-07-03T17:39:58.540Z,21.20
2023-07-03T17:42:29.410Z,21.19
2023-07-03T17:45:00.783Z,21.26
2023-07-03T17:47:32.241Z,21.30
2023-07-03T17:50:03.077Z,21.32
2023-07-03T17:52:33.928Z,21.31
2023-07-03T17:55:05.328Z,21.27
2023-07-03T17:57:36.128Z,21.21
2023-07-03T18:00:09.112Z,21.15
2023-07-03T18:02:40.381Z,21.11
2023-07-03T18:05:12.189Z,21.04
2023-07-03T18:07:43.315Z,21.00
2023-07-03T18:10:14.134Z,20.96
2023-07-03T18:12:45.669Z,20.92
2023-07-03T18:15:17.191Z,20.86
2023-07-03T18:17:48.022Z,20.81
2023-07-03T18:20:18.760Z,20.76
2023-07-03T18:22:49.558Z,20.73
2023-07-03T18:25:21.243Z,20.68
2023-07-03T18:27:52.104Z,20.59
2023-07-03T18:30:23.303Z,20.49
2023-07-03T18:32:54.648Z,20.36
2023-07-03T18:35:25.495Z,20.28
2023-07-03T18:37:56.830Z,20.21
2023-07-03T18:40:27.520Z,20.12
2023-07-03T18:42:58.739Z,20.02
2023-07-03T18:45:29.573Z,19.97
2023-07-03T18:48:00.847Z,19.93
2023-07-03T18:50:32.086Z,19.94
2023-07-03T18:53:03.262Z,19.91
2023-07-03T18:55:34.370Z,19.85
2023-07-03T18:58:05.383Z,19.79
2023-07-03T19:00:36.369Z,19.74
2023-07-03T19:03:07.523Z,19.68
2023-07-03T19:05:38.650Z,19.63
2023-07-03T19:08:12.552Z,19.57
2023-07-03T19:10:43.949Z,19.52
2023-07-03T19:13:14.719Z,19.49
2023-07-03T19:15:45.985Z,19.50
2023-07-03T19:18:16.772Z,19.53
2023-07-03T19:20:47.612Z,19.60
2023-07-03T19:23:18.445Z,19.66
2023-07-03T19:25:55.344Z,19.70
2023-07-03T19:28:27.722Z,19.75
2023-07-03T19:31:02.065Z,19.81
2023-07-03T19:33:33.904Z,19.85
2023-07-03T19:36:05.004Z,19.85
2023-07-03T19:38:38.817Z,19.87
2023-07-03T19:41:09.974Z,19.89
2023-07-03T19:43:41.828Z,19.90
2023-07-03T19:46:13.019Z,19.94
2023-07-03T19:48:43.926Z,19.92
2023-07-03T19:51:15.177Z,19.88
2023-07-03T19:53:46.077Z,19.82
2023-07-03T19:56:18.528Z,19.79
2023-07-03T19:58:49.830Z,19.76
2023-07-03T20:01:21.246Z,19.78
2023-07-03T20:03:51.988Z,19.76
2023-07-03T20:06:25.152Z,19.75
2023-07-03T20:08:56.040Z,19.77
2023-07-03T20:11:27.259Z,19.76
2023-07-03T20:13:58.762Z,19.76
2023-07-03T20:16:31.135Z,19.80
2023-07-03T20:19:01.976Z,19.80
2023-07-03T20:21:33.124Z,19.75
2023-07-03T20:24:03.956Z,19.70
2023-07-03T20:26:35.091Z,19.68
2023-07-03T20:29:05.917Z,19.66
2023-07-03T20:31:36.773Z,19.68
2023-07-03T20:34:08.130Z,19.66
2023-07-03T20:36:39.158Z,19.63
2023-07-03T20:39:10.193Z,19.60
2023-07-03T20:41:41.037Z,19.60
2023-07-03T20:44:15.863Z,19.60
2023-07-03T20:46:46.824Z,19.62
2023-07-03T20:49:18.108Z,19.62
2023-07-03T20:51:53.839Z,19.56
2023-07-03T20:54:34.342Z,19.52
2023-07-03T20:57:06.627Z,19.43
2023-07-03T20:59:38.824Z,19.37
2023-07-03T21:02:10.340Z,19.24
2023-07-03T21:04:41.707Z,19.14
2023-07-03T21:07:12.619Z,19.05
2023-07-03T21:09:43.282Z,18.99
2023-07-03T21:12:14.899Z,18.94
2023-07-03T21:14:46.437Z,18.91
2023-07-03T21:17:17.186Z,18.89
2023-07-03T21:19:52.011Z,18.91
2023-07-03T21:22:22.908Z,18.92
2023-07-03T21:24:54.237Z,18.94
2023-07-03T21:27:25.391Z,18.93
2023-07-03T21:29:56.721Z,18.91
2023-07-03T21:32:29.594Z,18.89
2023-07-03T21:35:01.037Z,18.90
2023-07-03T21:37:32.723Z,18.89
2023-07-03T21:40:05.030Z,18.92
2023-07-03T21:42:36.020Z,18.88
2023-07-03T21:45:08.185Z,18.87
2023-07-03T21:47:39.349Z,18.86
2023-07-03T21:50:12.544Z,18.86
2023-07-03T21:52:46.679Z,18.84
2023-07-03T21:55:17.512Z,18.81
2023-07-03T21:57:48.664Z,18.76
2023-07-03T22:00:20.697Z,18.73
2023-07-03T22:02:51.396Z,18.67
2023-07-03T22:05:22.356Z,18.60
2023-07-03T22:07:54.212Z,18.55
2023-07-03T22:10:25.738Z,18.50
2023-07-03T22:12:56.824Z,18.45
2023-07-03T22:15:28.040Z,18.41
2023-07-03T22:17:59.365Z,18.39
2023-07-03T22:20:32.057Z,18.34
2023-07-03T22:23:03.604Z,18.25
2023-07-03T22:25:35.232Z,18.21
2023-07-03T22:28:06.487Z,18.16
2023-07-03T22:30:37.315Z,18.16
2023-07-03T22:33:08.141Z,18.13
2023-07-03T22:35:39.109Z,18.11
2023-07-03T22:38:10.359Z,18.09
2023-07-03T22:40:41.737Z,18.04
2023-07-03T22:43:12.597Z,17.99
2023-07-03T22:45:43.368Z,17.92
2023-07-03T22:48:15.176Z,17.83
2023-07-03T22:50:54.640Z,17.74
2023-07-03T22:53:25.679Z,17.68
2023-07-03T22:55:56.461Z,17.62
2023-07-03T22:58:27.356Z,17.55
2023-07-03T23:00:58.301Z,17.49
2023-07-03T23:03:30.054Z,17.44
2023-07-03T23:06:01.505Z,17.38
2023-07-03T23:08:32.654Z,17.33
2023-07-03T23:11:04.232Z,17.28
2023-07-03T23:13:35.096Z,17.26
2023-07-03T23:16:10.398Z,17.24
2023-07-03T23:18:43.161Z,17.24
2023-07-03T23:21:16.611Z,17.24
2023-07-03T23:23:47.617Z,17.24
2023-07-03T23:26:19.315Z,17.23
2023-07-03T23:28:50.170Z,17.24
2023-07-03T23:31:21.399Z,17.24
2023-07-03T23:33:52.544Z,17.23
2023-07-03T23:36:24.505Z,17.21
2023-07-03T23:38:57.705Z,17.20
2023-07-03T23:41:28.719Z,17.17
2023-07-03T23:43:59.919Z,17.16
2023-07-03T23:46:33.035Z,17.16
2023-07-03T23:49:03.870Z,17.17
2023-07-03T23:51:35.218Z,17.19
2023-07-03T23:54:07.678Z,17.17
2023-07-03T23:56:39.426Z,17.20
2023-07-03T23:59:11.000Z,17.23
